• Join FlightAware (Why Join?)
  • Login
  • US Flag 
04:07AM EDT


 

Airport Tracker/Info


-or-


 

Live Flight TrackerFlight Track Log ✈ SWA4635 ✈ 27-Dec-2012 ✈ KBWI - KFLL

Flight Track Log - Related Links

Times and Time Zones

All times are in EST time to prevent confusion due to time zone crossing. See the SWA4635 flight status page for this flight to view local times or setup timezone preferences in your user account.

Time Position Orientation Groundspeed Altitude Reporting Facility
EST Latitude Longitude Course Direction KTS MPH feet Rate Location/Type
08:17PM 39.1667 -76.7161 171° South 165 190 2,100  Level Washington Center
08:19PM 39.0508 -76.6153 146° Southeast 215 247 6,700 2,400 Climbing Washington Center
08:20PM 38.9719 -76.5661 154° Southeast 267 307 9,400 2,340 Climbing Washington Center
08:21PM 38.8806 -76.5303 163° South 322 371 11,400 2,280 Climbing Washington Center
08:22PM 38.7847 -76.5264 178° South 343 395 14,000 2,580 Climbing Washington Center
08:23PM 38.5138 -76.7128 171° South  Level FlightAware Approximate
08:23PM 38.7028 -76.6000 215° Southwest 340 391 16,600  Level Washington Center
08:24PM 38.6269 -76.6706 216° Southwest 340 391 18,900 1,200 Climbing Washington Center
08:25PM 38.5328 -76.7222 203° Southwest 353 406 19,000 180 Climbing Washington Center
08:26PM 38.4203 -76.7072 174° South 373 429 19,300 960 Climbing Washington Center
08:27PM 38.3119 -76.6953 175° South 383 441 21,000 1,560 Climbing Washington Center
08:28PM 38.2100 -76.6778 172° South 404 465 22,500 1,380 Climbing Washington Center
08:29PM 38.0956 -76.6631 174° South 409 471 23,900 1,620 Climbing Washington Center
08:30PM 37.9789 -76.6481 174° South 414 476 25,800 1,320 Climbing Washington Center
08:31PM 37.8600 -76.6333 174° South 425 489 26,600 960 Climbing Washington Center
08:32PM 37.7350 -76.6158 174° South 442 509 27,700 1,140 Climbing Washington Center
08:33PM 37.6039 -76.5983 174° South 465 535 29,000 1,320 Climbing Washington Center
08:34PM 37.4789 -76.5811 174° South 465 535 30,400 1,500 Climbing Washington Center
08:35PM 37.3497 -76.5636 174° South 465 535 32,000 1,320 Climbing Washington Center
08:36PM 37.2244 -76.5492 175° South 465 535 33,100 960 Climbing Washington Center
08:37PM 37.1017 -76.5344 175° South 460 529 34,000 420 Climbing Washington Center
08:38PM 36.9767 -76.5175 174° South 455 524 34,000  Level Washington Center
08:39PM 36.8494 -76.5031 175° South 461 531 34,000  Level Washington Center
08:40PM 36.7264 -76.5014 179° South 456 525 34,000  Level Washington Center
08:41PM 36.6133 -76.5519 200° South 411 473 34,000  Level Washington Center
08:42PM 36.5064 -76.5997 200° South 406 467 34,000  Level Washington Center
08:43PM 36.4017 -76.6447 199° South 406 467 34,000  Level Washington Center
08:44PM 36.2950 -76.6872 198° South 406 467 34,000  Level Washington Center
08:45PM 36.1903 -76.7294 198° South 406 467 34,000  Level Washington Center
08:46PM 36.0833 -76.7742 199° South 406 467 34,000  Level Washington Center
08:47PM 35.9786 -76.8214 200° South 406 467 34,000  Level Washington Center
08:48PM 35.8719 -76.8633 198° South 406 467 34,000  Level Washington Center
08:49PM 35.7669 -76.9053 198° South 406 467 34,000  Level Washington Center
08:50PM 35.6622 -76.9519 200° South 406 467 34,000  Level Washington Center
08:51PM 35.5742 -76.9889 199° South 399 459 34,000  Level Washington Center
08:52PM 35.4650 -77.0356 199° South 399 459 34,000  Level Washington Center
08:53PM 35.3581 -77.0769 198° South 404 465 34,000  Level Washington Center
08:54PM 35.2511 -77.1206 198° South 409 471 34,000  Level Washington Center
08:55PM 35.1442 -77.1617 197° South 409 471 34,000  Level Washington Center
08:56PM 35.0414 -77.2056 199° South 409 471 34,000  Level Washington Center
08:57PM 34.9303 -77.2514 199° South 409 471 34,000  Level Washington Center
08:58PM 34.8233 -77.2947 198° South 409 471 34,000  Level Washington Center
08:59PM 34.7183 -77.3406 200° South 409 471 34,000  Level Washington Center
09:00PM 34.6111 -77.3836 198° South 409 471 34,000  Level Washington Center
09:01PM 34.5019 -77.4292 199° South 409 471 34,000  Level Washington Center
09:02PM 34.3969 -77.4697 198° South 409 471 34,000  Level Washington Center
09:03PM 34.2878 -77.5150 199° South 409 471 34,000  Level Washington Center
09:05PM 34.1106 -77.5806 197° South 412 474 34,000  Level Jacksonville Center
09:06PM 34.0039 -77.6222 198° South 412 474 34,000  Level Jacksonville Center
09:07PM 33.8950 -77.6664 199° South 412 474 34,000  Level Jacksonville Center
09:08PM 33.7883 -77.7100 199° South 417 480 34,000  Level Jacksonville Center
09:09PM 33.6817 -77.7514 198° South 412 474 34,000  Level Jacksonville Center
09:10PM 33.5811 -77.7947 200° South 419 482 34,000  Level Jacksonville Center
09:11PM 33.4722 -77.8383 198° South 419 482 34,000  Level Jacksonville Center
09:12PM 33.3633 -77.8817 198° South 419 482 34,000  Level Jacksonville Center
09:13PM 33.2544 -77.9225 197° South 419 482 34,000  Level Jacksonville Center
09:14PM 33.1497 -77.9681 200° South 419 482 34,000  Level Jacksonville Center
09:15PM 33.0408 -78.0089 197° South 419 482 34,000  Level Jacksonville Center
09:16PM 32.9317 -78.0494 197° South 419 482 34,000  Level Jacksonville Center
09:17PM 32.8206 -78.0925 198° South 419 482 34,000  Level Jacksonville Center
09:18PM 32.7139 -78.1350 199° South 419 482 34,000  Level Jacksonville Center
09:19PM 32.6047 -78.1803 199° South 419 482 34,000  Level Jacksonville Center
09:20PM 32.4956 -78.2181 196° South 419 482 34,000  Level Jacksonville Center
09:21PM 32.3844 -78.2606 198° South 419 482 34,000  Level Jacksonville Center
09:22PM 32.2650 -78.3058 198° South 413 475 34,000  Level Jacksonville Center
09:23PM 32.1581 -78.3456 197° South 413 475 34,000  Level Jacksonville Center
09:24PM 32.0489 -78.3903 199° South 413 475 34,000  Level Jacksonville Center
09:25PM 31.9397 -78.4275 196° South 420 483 34,000  Level Jacksonville Center
09:26PM 31.8306 -78.4717 199° South 415 478 34,000  Level Jacksonville Center
09:27PM 31.7214 -78.5136 198° South 421 484 34,000  Level Jacksonville Center
09:28PM 31.6100 -78.5531 197° South 412 474 34,000  Level Jacksonville Center
09:29PM 31.5028 -78.5944 198° South 423 487 34,000  Level Jacksonville Center
09:30PM 31.3956 -78.6286 195° South 411 473 34,000  Level Jacksonville Center
09:31PM 31.2844 -78.6775 201° Southwest 407 468 34,000  Level Jacksonville Center
09:32PM 31.1769 -78.7139 196° South 406 467 34,000  Level Jacksonville Center
09:33PM 31.0678 -78.7553 198° South 420 483 34,000  Level Jacksonville Center
09:34PM 30.9542 -78.7964 197° South 477 549 34,000  Level Jacksonville Center
09:35PM 30.8408 -78.8378 197° South 442 509 34,000  Level Jacksonville Center
09:37PM 30.5947 -78.9297 198° South 426 490 34,000  Level Miami Center
09:38PM 30.4897 -78.9711 199° South 421 484 34,000  Level Miami Center
09:39PM 30.3725 -79.0097 196° South 426 490 34,000  Level Miami Center
09:40PM 30.2594 -79.0386 192° South 426 490 34,000  Level Miami Center
09:41PM 30.1422 -79.0697 193° South 431 496 34,000  Level Miami Center
09:42PM 30.0250 -79.1008 193° South 431 496 34,000 -540 Level Miami Center
09:43PM 29.9056 -79.1392 196° South 420 483 33,000 -1,020 Descending Miami Center
09:44PM 29.7844 -79.1606 189° South 420 483 32,000 -540 Descending Miami Center
09:45PM 29.6711 -79.1939 194° South 426 490 32,000  Level Miami Center
09:46PM 29.5497 -79.2197 190° South 432 497 32,000  Level Miami Center
09:47PM 29.4303 -79.2506 193° South 440 506 32,000  Level Miami Center
09:48PM 29.3131 -79.2861 195° South 446 513 32,000  Level Miami Center
09:49PM 29.1894 -79.3119 190° South 436 502 32,000  Level Miami Center
09:50PM 29.0722 -79.3450 194° South 449 517 32,000  Level Miami Center
09:51PM 28.9506 -79.3731 191° South 446 513 32,000  Level Miami Center
09:52PM 28.8333 -79.4036 193° South 446 513 32,000  Level Miami Center
09:53PM 28.7136 -79.4339 193° South 441 507 32,000  Level Miami Center
09:54PM 28.5964 -79.4644 193° South 441 507 32,000 -60 Level Miami Center
09:55PM 28.4831 -79.4925 192° South 429 494 31,900 -600 Descending Miami Center
09:56PM 28.3636 -79.5225 192° South 434 499 30,900 -1,080 Descending Miami Center
09:57PM 28.2503 -79.5506 192° South 429 494 29,800 -900 Descending Miami Center
09:58PM 28.1478 -79.5742 191° South 424 488 29,100 -840 Descending Miami Center
09:59PM 28.0303 -79.6042 193° South 424 488 28,200 -960 Descending Miami Center
10:00PM 27.9089 -79.6178 186° South 432 497 27,300 -1,020 Descending Miami Center
10:01PM 27.7875 -79.6242 183° South 445 512 26,200 -1,140 Descending Miami Center
10:02PM 27.6517 -79.6325 183° South 440 506 25,000 -1,140 Descending Miami Center
10:03PM 27.5328 -79.6367 182° South 440 506 24,000 -1,020 Descending Miami Center
10:04PM 27.4156 -79.6433 183° South 435 501 23,000 -1,020 Descending Miami Center
10:05PM 27.3131 -79.6525 185° South 418 481 22,100 -960 Descending Miami Center
10:06PM 27.1981 -79.6589 183° South 418 481 21,100 -1,080 Descending Miami Center
10:07PM 27.0728 -79.6653 183° South 418 481 20,000 -1,320 Descending Miami Center
10:08PM 26.9597 -79.6742 184° South 412 474 18,500 -1,980 Descending Miami Center
10:09PM 26.8531 -79.6811 183° South 400 460 16,100 -2,400 Descending Miami Center
10:10PM 26.7486 -79.6903 184° South 387 445 13,700 -2,580 Descending Miami Center
10:10PM 26.7044 -79.7053 197° South 356 410 12,400 -2,520 Descending Miami Center
10:11PM 26.6600 -79.7297 206° Southwest 368 423 11,300 -1,620 Descending Miami Center
10:12PM 26.5756 -79.7719 204° Southwest 348 400 10,000 -1,140 Descending Miami Center
10:13PM 26.5019 -79.8025 200° South 309 356 9,000 -1,020 Descending Miami Center
10:14PM 26.4386 -79.8336 204° Southwest 281 323 8,000 -1,020 Descending Miami Center
10:15PM 26.3625 -79.8756 206° Southwest 276 318 7,000 -960 Descending Miami Center
10:15PM 26.3475 -79.8939 228° Southwest 266 306 6,800 -900 Descending Miami Center
10:16PM 26.3156 -79.9231 219° Southwest 271 312 6,100 -840 Descending Miami Center
10:16PM 26.2858 -79.9525 222° Southwest 261 300 5,900 -240 Descending Miami Center
10:17PM 26.2667 -79.9706 220° Southwest 263 303 5,900  Level Miami Center
10:18PM 26.2131 -80.0247 222° Southwest 248 285 5,900 60 Level Miami Center
10:18PM 26.1919 -80.0428 218° Southwest 220 253 6,000  Climbing Miami Center
10:19PM 26.1725 -80.0744 236° Southwest 227 261 5,900 -120 Descending Miami Center
10:20PM 26.1586 -80.1319 255° West 209 241 5,900 -180 Level Miami Center
10:21PM 26.1506 -80.2128 264° West 191 220 5,500 -780 Descending Miami Center
10:22PM 26.1492 -80.2661 268° West 196 226 4,300 -780 Descending Miami Center
10:23PM 26.1475 -80.3422 269° West 203 234 3,900 -240 Descending Miami Center
10:24PM 26.1500 -80.4072 272° West 204 235 3,800 -480 Descending Miami Center
10:25PM 26.1486 -80.4650 268° West 210 242 3,000 -600 Descending Miami Center
10:26PM 26.1106 -80.4892 210° Southwest 193 222 2,700 -600 Descending Miami Center
10:27PM 26.0867 -80.4400 118° Southeast 202 232 1,900 -420 Descending Miami Center
10:28PM 26.0733 -80.3817 104° East 197 227 1,900  Level Miami Center
10:29PM 26.0767 -80.3286 86° East 173 199 2,000  Climbing Miami Center
10:30PM 26.0739 -80.2753 93° East 171 197 1,900 -420 Descending Miami Center
10:31PM 26.0747 -80.2361 89° East 124 143 1,200 -780 Descending Miami Center
10:32PM 26.0736 -80.1944 92° East 136 157 500 -720 Descending Miami Center
10:34PM 26.0667 -80.1500 103° East  Level FlightAware Approximate